Jp Tsubaki — JD2817 — position and weather

sailwx.info

Track history (hours):
 
Tides and Currents Weather Stations Pressure Air Temp Water Temp Dewpoint Dewpoint Depression Visibility Wind Speed Wind Dir Waves Ship Positions

Jp Tsubaki

Last reported at 2018-May-24 09:00 UTC. Time now 2018-May-24 12:08 UTC.
Position N 35°24' E 139°38'.

Length 115 m; draft 4.5 m.

Type: Cargo ship. MMSI: 431000734.

Date/timePositionNaut miles runAvg speedWind from/ knotsBaromVisibWave heightAir tempDewpointWater temp
2018-May-24 09:00N 35°24' E 139°38'0 0.0
2018-May-24 08:30N 35°24' E 139°38'0 0.0
2018-May-24 08:00N 35°24' E 139°38'0 0.0
2018-May-24 07:30N 35°24' E 139°38'0 0.0
2018-May-24 07:00N 35°24' E 139°38'2 3.1
2018-May-24 06:30N 35°24' E 139°40'5 9.2
2018-May-24 06:00N 35°26' E 139°45'510.3
2018-May-24 05:31N 35°27' E 139°51'0 0.6
2018-May-24 04:54N 35°26' E 139°52'0 0.1
2018-May-24 04:30N 35°26' E 139°52'0 0.1
2018-May-24 04:00N 35°26' E 139°52'0 0.0
2018-May-24 03:30N 35°26' E 139°52'0 0.0
2018-May-24 02:57N 35°26' E 139°52'0 0.0
2018-May-24 02:30N 35°26' E 139°52'0 0.0
2018-May-24 02:00N 35°26' E 139°52'0 0.0
2018-May-24 01:12N 35°26' E 139°52'0 0.0
2018-May-24 00:48N 35°26' E 139°52'0 0.0
2018-May-23 23:24N 35°26' E 139°52'0 0.0
2018-May-23 23:00N 35°26' E 139°52'0 0.0
2018-May-23 22:30N 35°26' E 139°52'0 0.0
2018-May-23 22:00N 35°26' E 139°52'0 0.0
2018-May-23 21:27N 35°26' E 139°52'0 0.0
2018-May-23 21:00N 35°26' E 139°52'0 0.0
2018-May-23 20:30N 35°26' E 139°52'0 0.0
2018-May-23 20:00N 35°26' E 139°52'0 0.0
2018-May-23 19:30N 35°26' E 139°52'0 0.0
2018-May-23 19:00N 35°26' E 139°52'0 0.0
2018-May-23 18:30N 35°26' E 139°52'0 0.1
2018-May-23 17:54N 35°26' E 139°52'0 0.0
2018-May-23 17:27N 35°26' E 139°52'0 0.0
2018-May-23 17:00N 35°26' E 139°52'0 0.0
2018-May-23 16:21N 35°26' E 139°52'0 0.1
2018-May-23 15:57N 35°26' E 139°52'0 0.0
2018-May-23 15:27N 35°26' E 139°52'0 0.0
2018-May-23 15:00N 35°26' E 139°52'0 0.0
2018-May-23 14:30N 35°26' E 139°52'0 0.0
2018-May-23 14:00N 35°26' E 139°52'0 0.0
2018-May-23 13:27N 35°26' E 139°52'0 0.1
2018-May-23 12:54N 35°26' E 139°52'0 0.0
2018-May-23 12:30N 35°26' E 139°52'0 0.0
2018-May-23 12:00N 35°26' E 139°52'0 0.0
2018-May-23 11:30N 35°26' E 139°52'0 0.0
2018-May-23 11:00N 35°26' E 139°52'0 0.0
2018-May-23 10:24N 35°26' E 139°52'0 0.0
2018-May-23 10:00N 35°26' E 139°52'0 0.0
2018-May-23 09:24N 35°26' E 139°52'0 0.0
2018-May-23 09:00N 35°26' E 139°52'0 0.0
2018-May-23 08:30N 35°26' E 139°52'0 0.0
2018-May-23 08:00N 35°26' E 139°52'0 0.0
2018-May-23 06:48N 35°26' E 139°52'0 0.0
2018-May-23 06:27N 35°26' E 139°52'0 0.0
2018-May-23 03:54N 35°26' E 139°52'0 0.0
2018-May-23 02:54N 35°26' E 139°52'0 0.1
2018-May-23 02:30N 35°26' E 139°52'0 0.1
2018-May-23 02:00N 35°26' E 139°52'0 0.0
2018-May-23 01:27N 35°26' E 139°52'0 0.1
2018-May-23 01:00N 35°26' E 139°52'0 0.1
2018-May-23 00:27N 35°26' E 139°52'0 0.1
2018-May-23 00:00N 35°26' E 139°52'4 8.6
2018-May-22 23:31N 35°30' E 139°48'4 8.0
2018-May-22 23:00N 35°30' E 139°43'0 0.5
2018-May-22 22:29N 35°30' E 139°43'0 0.0
2018-May-22 21:59N 35°30' E 139°43'0 0.0
2018-May-22 21:29N 35°30' E 139°43'0 0.0
2018-May-22 20:59N 35°30' E 139°43'0 0.0
2018-May-22 20:29N 35°30' E 139°43'0 0.0
2018-May-22 19:59N 35°30' E 139°43'0 0.0
2018-May-22 19:29N 35°30' E 139°43'0 0.0
2018-May-22 18:59N 35°30' E 139°43'0 0.0
2018-May-22 18:29N 35°30' E 139°43'0 0.0
2018-May-22 17:59N 35°30' E 139°43'0 0.0
2018-May-22 17:29N 35°30' E 139°43'0 0.0
2018-May-22 16:59N 35°30' E 139°43'0 0.0
2018-May-22 16:29N 35°30' E 139°43'0 0.0
2018-May-22 15:59N 35°30' E 139°43'0 0.0
2018-May-22 15:29N 35°30' E 139°43'0 0.0
2018-May-22 14:59N 35°30' E 139°43'0 0.0
2018-May-22 14:29N 35°30' E 139°43'0 0.0
2018-May-22 13:59N 35°30' E 139°43'0 0.0
2018-May-22 13:29N 35°30' E 139°43'0 0.0
2018-May-22 12:59N 35°30' E 139°43'0 0.0
2018-May-22 12:29N 35°30' E 139°43'0 0.0
2018-May-22 11:59N 35°30' E 139°43'0 0.0
2018-May-22 11:29N 35°30' E 139°43'0 0.0
2018-May-22 10:53N 35°30' E 139°43'0 0.0
2018-May-22 10:29N 35°30' E 139°43'0 0.0
2018-May-22 09:59N 35°30' E 139°43'0 0.0
2018-May-22 09:29N 35°30' E 139°43'0 0.0
2018-May-22 08:59N 35°30' E 139°43'0 0.0
2018-May-22 08:29N 35°30' E 139°43'0 0.0
2018-May-22 07:59N 35°30' E 139°43'0 0.0
2018-May-22 07:29N 35°30' E 139°43'0 0.0
2018-May-22 06:59N 35°30' E 139°43'0 0.0
2018-May-22 06:29N 35°30' E 139°43'0 0.0
2018-May-22 05:59N 35°30' E 139°43'0 0.0
2018-May-22 05:29N 35°30' E 139°43'0 0.0
2018-May-22 04:59N 35°30' E 139°43'0 0.0
2018-May-22 04:29N 35°30' E 139°43'0 0.0
2018-May-22 03:59N 35°30' E 139°43'0 0.0
2018-May-22 03:29N 35°30' E 139°43'0 0.0
2018-May-22 02:59N 35°30' E 139°43'0 0.0
2018-May-22 02:23N 35°30' E 139°43'0 0.0
2018-May-22 01:59N 35°30' E 139°43'0 0.0
2018-May-22 01:29N 35°30' E 139°43'0 0.8
2018-May-22 01:00N 35°29' E 139°43'3 5.7
2018-May-22 00:30N 35°27' E 139°43'4 8.0
2018-May-22 00:00N 35°24' E 139°39'0 1.0
2018-May-21 23:30N 35°24' E 139°38'0 0.0
2018-May-21 23:00N 35°24' E 139°38'0 0.0
2018-May-21 22:27N 35°24' E 139°38'0 0.0
2018-May-21 22:00N 35°24' E 139°38'0 0.0
2018-May-21 21:30N 35°24' E 139°38'0 0.0
2018-May-21 21:00N 35°24' E 139°38'0 0.0
2018-May-21 20:30N 35°24' E 139°38'0 0.0
2018-May-21 19:57N 35°24' E 139°38'0 0.0
2018-May-21 19:30N 35°24' E 139°38'0 0.1
2018-May-21 19:00N 35°24' E 139°39'0 0.1
2018-May-21 18:30N 35°24' E 139°38'0 0.0
2018-May-21 18:00N 35°24' E 139°38'0 0.0
2018-May-21 17:30N 35°24' E 139°38'0 0.0
2018-May-21 17:00N 35°24' E 139°38'0 0.0
2018-May-21 16:30N 35°24' E 139°38'0 0.0
2018-May-21 16:00N 35°24' E 139°38'0 0.0
2018-May-21 15:30N 35°24' E 139°38'0 0.0
2018-May-21 14:57N 35°24' E 139°38'0 0.0
2018-May-21 14:30N 35°24' E 139°38'0 0.0
2018-May-21 14:00N 35°24' E 139°38'0 0.0
2018-May-21 13:30N 35°24' E 139°38'0 0.0
2018-May-21 13:00N 35°24' E 139°38'0 0.0
2018-May-21 12:30N 35°24' E 139°38'0 0.0
2018-May-21 12:00N 35°24' E 139°38'0 0.0
2018-May-21 11:30N 35°24' E 139°38'0 0.0
2018-May-21 11:00N 35°24' E 139°38'0 0.0
2018-May-21 10:30N 35°24' E 139°38'0 0.0
2018-May-21 10:00N 35°24' E 139°38'0 0.0
2018-May-21 09:30N 35°24' E 139°38'0 0.0
2018-May-21 09:00N 35°24' E 139°38'0 0.0
2018-May-21 08:30N 35°24' E 139°38'0 0.0
2018-May-21 08:00N 35°24' E 139°38'0 0.0
2018-May-21 07:30N 35°24' E 139°38'0 0.0
2018-May-21 07:00N 35°24' E 139°38'0 0.0
2018-May-21 06:30N 35°24' E 139°38'0 0.0
2018-May-21 06:00N 35°24' E 139°38'0 0.0
2018-May-21 05:30N 35°24' E 139°38'0 0.0
2018-May-21 05:00N 35°24' E 139°38'0 0.0
2018-May-21 04:30N 35°24' E 139°38'0 0.0
2018-May-21 03:57N 35°24' E 139°38'0 0.0
2018-May-21 03:30N 35°24' E 139°38'0 0.0
2018-May-21 03:00N 35°24' E 139°38'0 0.0
2018-May-21 02:30N 35°24' E 139°38'0 0.0
2018-May-21 02:00N 35°24' E 139°38'0 0.0
2018-May-21 01:27N 35°24' E 139°38'0 0.0
2018-May-21 01:00N 35°24' E 139°38'1 1.4
2018-May-21 00:30N 35°24' E 139°39'4 7.5
2018-May-21 00:00N 35°23' E 139°44'0 0.8
2018-May-20 23:28N 35°23' E 139°44'0 0.1
2018-May-20 22:58N 35°23' E 139°44'2 4.5
2018-May-20 22:30N 35°24' E 139°46'4 7.2
2018-May-20 22:00N 35°27' E 139°47'3 6.3
2018-May-20 21:30N 35°30' E 139°46'3 5.2
2018-May-20 21:00N 35°30' E 139°43'0 0.4
2018-May-20 20:26N 35°30' E 139°43'0 0.0
2018-May-20 19:59N 35°30' E 139°43'0 0.0
2018-May-20 19:29N 35°30' E 139°43'0 0.0
2018-May-20 18:59N 35°30' E 139°43'0 0.0
2018-May-20 18:29N 35°30' E 139°43'0 0.0
2018-May-20 17:59N 35°30' E 139°43'0 0.0
2018-May-20 17:29N 35°30' E 139°43'0 0.0
2018-May-20 16:59N 35°30' E 139°43'0 0.0
2018-May-20 16:29N 35°30' E 139°43'0 0.0
2018-May-20 15:56N 35°30' E 139°43'0 0.0
2018-May-20 15:29N 35°30' E 139°43'0 0.0
2018-May-20 14:59N 35°30' E 139°43'0 0.0
2018-May-20 14:29N 35°30' E 139°43'0 0.6
2018-May-20 14:00N 35°29' E 139°43'2 4.1
2018-May-20 13:30N 35°27' E 139°43'4 8.0
2018-May-20 13:00N 35°24' E 139°41'2 4.9
2018-May-20 12:30N 35°24' E 139°39'0 0.0
2018-May-20 12:00N 35°24' E 139°39'0 0.0
2018-May-20 11:30N 35°24' E 139°39'0 0.0
2018-May-20 11:00N 35°24' E 139°39'0 0.0
2018-May-20 10:27N 35°24' E 139°39'0 0.0
2018-May-20 10:00N 35°24' E 139°39'0 0.0
2018-May-20 09:30N 35°24' E 139°39'0 0.0
2018-May-20 08:57N 35°24' E 139°39'0 0.0
2018-May-20 08:30N 35°24' E 139°39'0 0.0
2018-May-20 08:00N 35°24' E 139°39'0 0.0
2018-May-20 07:30N 35°24' E 139°39'0 0.0
2018-May-20 07:00N 35°24' E 139°39'0 0.9
2018-May-20 06:30N 35°24' E 139°39'5 9.4
2018-May-20 06:00N 35°23' E 139°45'0 0.8
2018-May-20 05:30N 35°23' E 139°45'0 0.0
2018-May-20 05:00N 35°23' E 139°45'0 0.0
2018-May-20 04:30N 35°23' E 139°45'0 0.0
2018-May-20 04:00N 35°23' E 139°45'0 0.0
2018-May-20 03:30N 35°23' E 139°45'0 0.0
2018-May-20 03:00N 35°23' E 139°45'0 0.0
2018-May-20 02:27N 35°23' E 139°45'0 0.0
2018-May-20 01:57N 35°23' E 139°45'0 0.2
2018-May-20 01:30N 35°23' E 139°45'4 8.5
2018-May-20 01:00N 35°27' E 139°48'510.6
2018-May-20 00:30N 35°30' E 139°52'1 2.3
2018-May-20 00:00N 35°30' E 139°54'0 0.1
2018-May-19 23:30N 35°30' E 139°54'0 0.1
2018-May-19 23:00N 35°30' E 139°54'0 0.0
2018-May-19 22:30N 35°30' E 139°54'0 0.0
2018-May-19 22:00N 35°30' E 139°54'0 0.0
2018-May-19 21:30N 35°30' E 139°54'0 0.0
2018-May-19 21:00N 35°30' E 139°54'0 0.0
2018-May-19 20:30N 35°30' E 139°54'0 0.0
2018-May-19 20:00N 35°30' E 139°54'0 0.1
2018-May-19 19:30N 35°30' E 139°54'0 0.0
2018-May-19 19:00N 35°30' E 139°54'0 0.0
2018-May-19 18:27N 35°30' E 139°54'0 0.0
2018-May-19 18:00N 35°30' E 139°54'0 0.1
2018-May-19 17:30N 35°30' E 139°54'0 0.0
2018-May-19 17:00N 35°30' E 139°54'0 0.0
2018-May-19 16:21N 35°30' E 139°54'0 0.0
2018-May-19 16:00N 35°30' E 139°54'0 0.0
2018-May-19 15:30N 35°30' E 139°54'0 0.0
2018-May-19 14:57N 35°30' E 139°54'0 0.0
2018-May-19 14:30N 35°30' E 139°54'0 0.0
2018-May-19 14:00N 35°30' E 139°54'0 0.0
2018-May-19 13:30N 35°30' E 139°54'0 0.1
2018-May-19 12:57N 35°30' E 139°54'0 0.1
2018-May-19 12:30N 35°30' E 139°54'0 0.0
2018-May-19 12:00N 35°30' E 139°54'0 0.0
2018-May-19 11:30N 35°30' E 139°54'0 0.0
2018-May-19 10:48N 35°30' E 139°54'0 0.0
2018-May-19 10:30N 35°30' E 139°54'0 0.0
2018-May-19 09:57N 35°30' E 139°54'0 0.0
2018-May-19 09:30N 35°30' E 139°54'0 0.0
2018-May-19 08:51N 35°30' E 139°54'0 0.0
2018-May-19 08:30N 35°30' E 139°54'0 0.0
2018-May-19 07:21N 35°30' E 139°54'0 0.0
2018-May-19 07:00N 35°30' E 139°54'0 0.0
2018-May-19 06:30N 35°30' E 139°54'0 0.0
2018-May-19 05:36N 35°30' E 139°54'0 0.0
2018-May-19 05:24N 35°30' E 139°54'0 0.0
2018-May-19 04:57N 35°30' E 139°54'0 0.0
2018-May-19 04:27N 35°30' E 139°54'0 0.0
2018-May-19 04:00N 35°30' E 139°54'0 0.0
2018-May-19 03:15N 35°30' E 139°54'0 0.0
2018-May-19 02:51N 35°30' E 139°54'0 0.1
2018-May-19 02:24N 35°30' E 139°54'0 0.1
2018-May-19 01:57N 35°30' E 139°54'0 0.1
2018-May-19 01:24N 35°30' E 139°54'0 0.0
2018-May-19 01:00N 35°30' E 139°54'0 0.0
2018-May-19 00:30N 35°30' E 139°54'0 0.0
2018-May-18 23:57N 35°30' E 139°54'0 0.1
2018-May-18 23:30N 35°30' E 139°54'0 0.0
2018-May-18 21:54N 35°30' E 139°54'0 0.0
2018-May-18 20:33N 35°30' E 139°54'0 0.0
2018-May-18 20:30N 35°30' E 139°54'0 0.0
2018-May-18 19:57N 35°30' E 139°54'0 0.0
2018-May-18 19:03N 35°30' E 139°54'0 0.0
2018-May-18 18:48N 35°30' E 139°54'0 0.0
2018-May-18 18:27N 35°30' E 139°54'0 0.0
2018-May-18 17:54N 35°30' E 139°54'0 0.0
2018-May-18 17:24N 35°30' E 139°54'0 0.0
2018-May-18 17:00N 35°30' E 139°54'0 0.0
2018-May-18 16:24N 35°30' E 139°54'0 0.0
2018-May-18 15:51N 35°30' E 139°54'0 0.0
2018-May-18 15:27N 35°30' E 139°54'0 0.0
2018-May-18 15:00N 35°30' E 139°54'0 0.0
2018-May-18 14:18N 35°30' E 139°54'0 0.0
2018-May-18 13:39N 35°30' E 139°54'0 0.2
2018-May-18 13:27N 35°30' E 139°54'0 0.0
2018-May-18 12:42N 35°30' E 139°54'0 0.0
2018-May-18 12:30N 35°30' E 139°54'0 0.0
2018-May-18 12:00N 35°30' E 139°54'0 0.0
2018-May-18 11:30N 35°30' E 139°54'0 0.0
2018-May-18 11:00N 35°30' E 139°54'0 0.0
2018-May-18 10:27N 35°30' E 139°54'0 0.0
2018-May-18 10:00N 35°30' E 139°54'0 0.1
2018-May-18 09:27N 35°30' E 139°54'0 0.1
2018-May-18 08:54N 35°30' E 139°54'0 0.0
2018-May-18 08:27N 35°30' E 139°54'0 0.0
2018-May-18 07:57N 35°30' E 139°54'0 0.0
2018-May-18 06:51N 35°30' E 139°54'0 0.0
2018-May-18 06:21N 35°30' E 139°54'0 0.0
2018-May-18 05:51N 35°30' E 139°54'0 0.0
2018-May-18 05:30N 35°30' E 139°54'0 0.0
2018-May-18 04:57N 35°30' E 139°54'0 0.1
2018-May-18 04:30N 35°30' E 139°54'0 0.2
2018-May-18 04:00N 35°30' E 139°54'0 0.0
2018-May-18 03:30N 35°30' E 139°54'0 0.0
2018-May-18 03:00N 35°30' E 139°54'0 0.2
2018-May-18 02:30N 35°30' E 139°54'3 5.7
2018-May-18 02:00N 35°28' E 139°51'5 9.5
2018-May-18 01:30N 35°25' E 139°46'5 9.3
2018-May-18 01:00N 35°23' E 139°41'1 2.7
2018-May-18 00:29N 35°24' E 139°40'0 0.1
2018-May-17 23:59N 35°24' E 139°40'0 0.1
2018-May-17 23:29N 35°24' E 139°40'0 0.0
2018-May-17 22:59N 35°24' E 139°40'0 0.0
2018-May-17 22:29N 35°24' E 139°40'0 0.0
2018-May-17 21:59N 35°24' E 139°40'0 0.0
2018-May-17 21:29N 35°24' E 139°40'0 0.0
2018-May-17 20:59N 35°24' E 139°40'0 0.0
2018-May-17 20:29N 35°24' E 139°40'0 0.0
2018-May-17 19:59N 35°24' E 139°40'0 0.0
2018-May-17 19:29N 35°24' E 139°40'0 0.0
2018-May-17 19:00N 35°24' E 139°40'1 2.3
2018-May-17 18:31N 35°24' E 139°39'0 0.1
2018-May-17 17:58N 35°24' E 139°39'0 0.0
2018-May-17 17:28N 35°24' E 139°39'0 0.0
2018-May-17 16:58N 35°24' E 139°39'0 0.0
2018-May-17 16:28N 35°24' E 139°39'0 0.0
2018-May-17 15:58N 35°24' E 139°39'0 0.0
2018-May-17 15:28N 35°24' E 139°39'0 0.0
2018-May-17 14:58N 35°24' E 139°39'0 0.0
2018-May-17 14:28N 35°24' E 139°39'0 0.0
2018-May-17 13:58N 35°24' E 139°39'0 0.0
2018-May-17 13:28N 35°24' E 139°39'0 0.0
2018-May-17 12:58N 35°24' E 139°39'0 0.0
2018-May-17 12:29N 35°24' E 139°39'0 0.6
2018-May-17 12:00N 35°24' E 139°38'3 5.3
2018-May-17 11:30N 35°24' E 139°42'510.3
2018-May-17 11:00N 35°27' E 139°46'5 9.8
2018-May-17 10:30N 35°30' E 139°51'2 4.2
2018-May-17 10:00N 35°30' E 139°54'0 0.1
2018-May-17 09:25N 35°30' E 139°54'0 0.0
2018-May-17 08:58N 35°30' E 139°54'0 0.0
2018-May-17 08:28N 35°30' E 139°54'0 0.0
2018-May-17 07:55N 35°30' E 139°54'0 0.0
2018-May-17 07:28N 35°30' E 139°54'0 0.0
2018-May-17 06:55N 35°30' E 139°54'0 0.0
2018-May-17 06:28N 35°30' E 139°54'0 0.0
2018-May-17 05:58N 35°30' E 139°54'0 0.0
2018-May-17 05:28N 35°30' E 139°54'0 0.0
2018-May-17 04:55N 35°30' E 139°54'0 0.0
2018-May-17 04:28N 35°30' E 139°54'0 0.0
2018-May-17 03:58N 35°30' E 139°54'0 0.0
2018-May-17 03:28N 35°30' E 139°54'0 0.0
2018-May-17 02:58N 35°30' E 139°54'0 0.0
2018-May-17 02:28N 35°30' E 139°54'0 0.0
2018-May-17 01:55N 35°30' E 139°54'0 0.0
2018-May-17 01:28N 35°30' E 139°54'0 0.0
2018-May-17 00:55N 35°30' E 139°54'0 0.0
2018-May-17 00:25N 35°30' E 139°54'0 0.0
2018-May-16 23:55N 35°30' E 139°54'0 0.0
2018-May-16 23:28N 35°30' E 139°54'0 0.0
2018-May-16 22:58N 35°30' E 139°54'0 0.0
2018-May-16 22:28N 35°30' E 139°54'0 0.0
2018-May-16 21:58N 35°30' E 139°54'0 0.0
2018-May-16 21:28N 35°30' E 139°54'0 0.0
2018-May-16 20:58N 35°30' E 139°54'0 0.0
2018-May-16 20:25N 35°30' E 139°54'0 0.0
2018-May-16 19:58N 35°30' E 139°54'0 0.0
2018-May-16 19:28N 35°30' E 139°54'0 0.0
2018-May-16 18:58N 35°30' E 139°54'0 0.0
2018-May-16 18:28N 35°30' E 139°54'0 0.0
2018-May-16 17:52N 35°30' E 139°54'0 0.0
2018-May-16 17:28N 35°30' E 139°54'0 0.0
2018-May-16 16:55N 35°30' E 139°54'0 0.0
2018-May-16 16:25N 35°30' E 139°54'0 0.0
2018-May-16 15:58N 35°30' E 139°54'0 0.0
2018-May-16 15:28N 35°30' E 139°54'0 0.0
2018-May-16 14:52N 35°30' E 139°54'0 0.0
2018-May-16 14:25N 35°30' E 139°54'0 0.0
2018-May-16 13:58N 35°30' E 139°54'0 0.0
2018-May-16 13:28N 35°30' E 139°54'0 0.0
2018-May-16 12:58N 35°30' E 139°54'0 0.0
2018-May-16 12:28N 35°30' E 139°54'0 0.0
2018-May-16 11:58N 35°30' E 139°54'0 0.0
2018-May-16 11:28N 35°30' E 139°54'0 0.0
2018-May-16 10:58N 35°30' E 139°54'0 0.0
2018-May-16 10:28N 35°30' E 139°54'0 0.0
2018-May-16 09:58N 35°30' E 139°54'0 0.0
2018-May-16 09:25N 35°30' E 139°54'0 0.0
2018-May-16 08:58N 35°30' E 139°54'0 0.0
2018-May-16 08:28N 35°30' E 139°54'0 0.0
2018-May-16 07:58N 35°30' E 139°54'0 0.3
2018-May-16 07:30N 35°30' E 139°54'4 9.0
2018-May-16 07:00N 35°30' E 139°48'4 8.0
2018-May-16 06:29N 35°30' E 139°43'0 0.5
2018-May-16 05:59N 35°30' E 139°43'0 0.0
2018-May-16 05:29N 35°30' E 139°43'0 0.0
2018-May-16 04:59N 35°30' E 139°43'0 0.0
2018-May-16 04:29N 35°30' E 139°43'0 0.0
2018-May-16 03:59N 35°30' E 139°43'0 0.0
2018-May-16 03:29N 35°30' E 139°43'0 0.0
2018-May-16 02:59N 35°30' E 139°43'0 0.0
2018-May-16 02:29N 35°30' E 139°43'0 0.0
2018-May-16 01:59N 35°30' E 139°43'0 0.0
2018-May-16 01:29N 35°30' E 139°43'0 0.0
2018-May-16 00:59N 35°30' E 139°43'0 0.0
2018-May-16 00:29N 35°30' E 139°43'0 0.7
2018-May-16 00:00N 35°29' E 139°43'3 5.7
2018-May-15 23:30N 35°27' E 139°43'4 8.2
2018-May-15 23:00N 35°24' E 139°40'1 2.2
2018-May-15 22:30N 35°24' E 139°39'0 0.0
2018-May-15 22:01N 35°24' E 139°39'0 0.0
2018-May-15 21:30N 35°24' E 139°39'0 0.0
2018-May-15 21:01N 35°24' E 139°39'0 0.0
2018-May-15 20:31N 35°24' E 139°39'0 0.0
2018-May-15 20:00N 35°24' E 139°39'0 0.0
2018-May-15 19:30N 35°24' E 139°39'0 0.1
2018-May-15 19:01N 35°24' E 139°39'0 0.1
2018-May-15 18:30N 35°24' E 139°39'0 0.0
2018-May-15 18:00N 35°24' E 139°39'0 0.0
2018-May-15 17:30N 35°24' E 139°39'0 0.0
2018-May-15 17:01N 35°24' E 139°39'0 0.0
2018-May-15 16:31N 35°24' E 139°39'0 0.0
2018-May-15 16:00N 35°24' E 139°39'0 0.0
2018-May-15 15:30N 35°24' E 139°39'0 0.8
2018-May-15 15:00N 35°24' E 139°39'2 4.6
2018-May-15 14:30N 35°23' E 139°41'4 8.9
2018-May-15 14:00N 35°26' E 139°45'4 8.4
2018-May-15 13:30N 35°29' E 139°50'3 6.4
2018-May-15 13:00N 35°30' E 139°53'2 5.0
2018-May-15 12:30N 35°30' E 139°56'3 5.3
2018-May-15 12:00N 35°27' E 139°58'0 0.2
2018-May-15 11:24N 35°27' E 139°58'0 0.0
2018-May-15 11:00N 35°27' E 139°58'0 0.0
2018-May-15 10:24N 35°27' E 139°58'0 0.0
2018-May-15 09:54N 35°27' E 139°58'0 0.0
2018-May-15 09:30N 35°27' E 139°58'0 0.0
2018-May-15 09:00N 35°27' E 139°58'0 0.0
2018-May-15 08:30N 35°27' E 139°58'0 0.0
2018-May-15 08:00N 35°27' E 139°58'0 0.0
2018-May-15 07:30N 35°27' E 139°58'0 0.7
2018-May-15 07:00N 35°28' E 139°58'3 6.8
2018-May-15 06:30N 35°29' E 139°54'611.1
2018-May-15 06:00N 35°26' E 139°48'611.4
2018-May-15 05:30N 35°24' E 139°42'3 5.9
2018-May-15 05:00N 35°24' E 139°39'0 0.0
2018-May-15 04:29N 35°24' E 139°39'0 0.0
2018-May-15 03:59N 35°24' E 139°39'0 0.0
2018-May-15 03:29N 35°24' E 139°39'0 0.0
2018-May-15 02:59N 35°24' E 139°39'0 0.0
2018-May-15 02:26N 35°24' E 139°39'0 0.0
2018-May-15 01:59N 35°24' E 139°39'0 0.0
2018-May-15 01:29N 35°24' E 139°39'0 0.0
2018-May-15 00:59N 35°24' E 139°39'0 0.0
2018-May-15 00:29N 35°24' E 139°39'0 0.0
2018-May-14 23:56N 35°24' E 139°39'0 0.0
2018-May-14 23:31N 35°24' E 139°39'0 0.7
2018-May-14 23:01N 35°24' E 139°39'1 1.9
2018-May-14 22:30N 35°24' E 139°40'1 1.1
2018-May-14 22:01N 35°24' E 139°40'0 0.0
2018-May-14 21:26N 35°24' E 139°40'0 0.0
2018-May-14 20:59N 35°24' E 139°40'0 0.0
2018-May-14 20:29N 35°24' E 139°40'0 0.0
2018-May-14 19:59N 35°24' E 139°40'0 0.0
2018-May-14 19:29N 35°24' E 139°40'0 0.0
2018-May-14 18:59N 35°24' E 139°40'0 0.0
2018-May-14 18:29N 35°24' E 139°40'0 0.0
2018-May-14 17:59N 35°24' E 139°40'0 0.0
2018-May-14 17:29N 35°24' E 139°40'0 0.0
2018-May-14 16:59N 35°24' E 139°40'0 0.0
2018-May-14 16:26N 35°24' E 139°40'0 0.0
2018-May-14 15:59N 35°24' E 139°40'0 0.0
2018-May-14 15:29N 35°24' E 139°40'0 0.0
2018-May-14 14:59N 35°24' E 139°40'0 0.0
2018-May-14 14:29N 35°24' E 139°40'0 0.0
2018-May-14 13:59N 35°24' E 139°40'0 0.0
2018-May-14 13:29N 35°24' E 139°40'0 0.0
2018-May-14 12:59N 35°24' E 139°40'0 0.0
2018-May-14 12:29N 35°24' E 139°40'0 0.0
2018-May-14 11:59N 35°24' E 139°40'0 0.0
2018-May-14 11:26N 35°24' E 139°40'0 0.0
2018-May-14 10:56N 35°24' E 139°40'0 0.0
2018-May-14 10:29N 35°24' E 139°40'0 0.0
2018-May-14 10:00N 35°24' E 139°40'0 0.0
2018-May-14 09:29N 35°24' E 139°40'  
Track history (hours):
 
Tides and Currents Weather Stations Pressure Air Temp Water Temp Dewpoint Dewpoint Depression Visibility Wind Speed Wind Dir Waves Ship Positions

Jp Tsubaki

Last reported at 2018-May-24 09:00 UTC. Time now 2018-May-24 12:08 UTC.
Position N 35°24' E 139°38'.

Length 115 m; draft 4.5 m.

Type: Cargo ship. MMSI: 431000734.

Date/timePositionNaut miles runAvg speedWind from/ knotsBaromVisibWave heightAir tempDewpointWater temp
2018-May-24 09:00N 35°24' E 139°38'0 0.0
2018-May-24 08:30N 35°24' E 139°38'0 0.0
2018-May-24 08:00N 35°24' E 139°38'0 0.0
2018-May-24 07:30N 35°24' E 139°38'0 0.0
2018-May-24 07:00N 35°24' E 139°38'2 3.1
2018-May-24 06:30N 35°24' E 139°40'5 9.2
2018-May-24 06:00N 35°26' E 139°45'510.3
2018-May-24 05:31N 35°27' E 139°51'0 0.6
2018-May-24 04:54N 35°26' E 139°52'0 0.1
2018-May-24 04:30N 35°26' E 139°52'0 0.1
2018-May-24 04:00N 35°26' E 139°52'0 0.0
2018-May-24 03:30N 35°26' E 139°52'0 0.0
2018-May-24 02:57N 35°26' E 139°52'0 0.0
2018-May-24 02:30N 35°26' E 139°52'0 0.0
2018-May-24 02:00N 35°26' E 139°52'0 0.0
2018-May-24 01:12N 35°26' E 139°52'0 0.0
2018-May-24 00:48N 35°26' E 139°52'0 0.0
2018-May-23 23:24N 35°26' E 139°52'0 0.0
2018-May-23 23:00N 35°26' E 139°52'0 0.0
2018-May-23 22:30N 35°26' E 139°52'0 0.0
2018-May-23 22:00N 35°26' E 139°52'0 0.0
2018-May-23 21:27N 35°26' E 139°52'0 0.0
2018-May-23 21:00N 35°26' E 139°52'0 0.0
2018-May-23 20:30N 35°26' E 139°52'0 0.0
2018-May-23 20:00N 35°26' E 139°52'0 0.0
2018-May-23 19:30N 35°26' E 139°52'0 0.0
2018-May-23 19:00N 35°26' E 139°52'0 0.0
2018-May-23 18:30N 35°26' E 139°52'0 0.1
2018-May-23 17:54N 35°26' E 139°52'0 0.0
2018-May-23 17:27N 35°26' E 139°52'0 0.0
2018-May-23 17:00N 35°26' E 139°52'0 0.0
2018-May-23 16:21N 35°26' E 139°52'0 0.1
2018-May-23 15:57N 35°26' E 139°52'0 0.0
2018-May-23 15:27N 35°26' E 139°52'0 0.0
2018-May-23 15:00N 35°26' E 139°52'0 0.0
2018-May-23 14:30N 35°26' E 139°52'0 0.0
2018-May-23 14:00N 35°26' E 139°52'0 0.0
2018-May-23 13:27N 35°26' E 139°52'0 0.1
2018-May-23 12:54N 35°26' E 139°52'0 0.0
2018-May-23 12:30N 35°26' E 139°52'0 0.0
2018-May-23 12:00N 35°26' E 139°52'0 0.0
2018-May-23 11:30N 35°26' E 139°52'0 0.0
2018-May-23 11:00N 35°26' E 139°52'0 0.0
2018-May-23 10:24N 35°26' E 139°52'0 0.0
2018-May-23 10:00N 35°26' E 139°52'0 0.0
2018-May-23 09:24N 35°26' E 139°52'0 0.0
2018-May-23 09:00N 35°26' E 139°52'0 0.0
2018-May-23 08:30N 35°26' E 139°52'0 0.0
2018-May-23 08:00N 35°26' E 139°52'0 0.0
2018-May-23 06:48N 35°26' E 139°52'0 0.0
2018-May-23 06:27N 35°26' E 139°52'0 0.0
2018-May-23 03:54N 35°26' E 139°52'0 0.0
2018-May-23 02:54N 35°26' E 139°52'0 0.1
2018-May-23 02:30N 35°26' E 139°52'0 0.1
2018-May-23 02:00N 35°26' E 139°52'0 0.0
2018-May-23 01:27N 35°26' E 139°52'0 0.1
2018-May-23 01:00N 35°26' E 139°52'0 0.1
2018-May-23 00:27N 35°26' E 139°52'0 0.1
2018-May-23 00:00N 35°26' E 139°52'4 8.6
2018-May-22 23:31N 35°30' E 139°48'4 8.0
2018-May-22 23:00N 35°30' E 139°43'0 0.5
2018-May-22 22:29N 35°30' E 139°43'0 0.0
2018-May-22 21:59N 35°30' E 139°43'0 0.0
2018-May-22 21:29N 35°30' E 139°43'0 0.0
2018-May-22 20:59N 35°30' E 139°43'0 0.0
2018-May-22 20:29N 35°30' E 139°43'0 0.0
2018-May-22 19:59N 35°30' E 139°43'0 0.0
2018-May-22 19:29N 35°30' E 139°43'0 0.0
2018-May-22 18:59N 35°30' E 139°43'0 0.0
2018-May-22 18:29N 35°30' E 139°43'0 0.0
2018-May-22 17:59N 35°30' E 139°43'0 0.0
2018-May-22 17:29N 35°30' E 139°43'0 0.0
2018-May-22 16:59N 35°30' E 139°43'0 0.0
2018-May-22 16:29N 35°30' E 139°43'0 0.0
2018-May-22 15:59N 35°30' E 139°43'0 0.0
2018-May-22 15:29N 35°30' E 139°43'0 0.0
2018-May-22 14:59N 35°30' E 139°43'0 0.0
2018-May-22 14:29N 35°30' E 139°43'0 0.0
2018-May-22 13:59N 35°30' E 139°43'0 0.0
2018-May-22 13:29N 35°30' E 139°43'0 0.0
2018-May-22 12:59N 35°30' E 139°43'0 0.0
2018-May-22 12:29N 35°30' E 139°43'0 0.0
2018-May-22 11:59N 35°30' E 139°43'0 0.0
2018-May-22 11:29N 35°30' E 139°43'0 0.0
2018-May-22 10:53N 35°30' E 139°43'0 0.0
2018-May-22 10:29N 35°30' E 139°43'0 0.0
2018-May-22 09:59N 35°30' E 139°43'0 0.0
2018-May-22 09:29N 35°30' E 139°43'0 0.0
2018-May-22 08:59N 35°30' E 139°43'0 0.0
2018-May-22 08:29N 35°30' E 139°43'0 0.0
2018-May-22 07:59N 35°30' E 139°43'0 0.0
2018-May-22 07:29N 35°30' E 139°43'0 0.0
2018-May-22 06:59N 35°30' E 139°43'0 0.0
2018-May-22 06:29N 35°30' E 139°43'0 0.0
2018-May-22 05:59N 35°30' E 139°43'0 0.0
2018-May-22 05:29N 35°30' E 139°43'0 0.0
2018-May-22 04:59N 35°30' E 139°43'0 0.0
2018-May-22 04:29N 35°30' E 139°43'0 0.0
2018-May-22 03:59N 35°30' E 139°43'0 0.0
2018-May-22 03:29N 35°30' E 139°43'0 0.0
2018-May-22 02:59N 35°30' E 139°43'0 0.0
2018-May-22 02:23N 35°30' E 139°43'0 0.0
2018-May-22 01:59N 35°30' E 139°43'0 0.0
2018-May-22 01:29N 35°30' E 139°43'0 0.8
2018-May-22 01:00N 35°29' E 139°43'3 5.7
2018-May-22 00:30N 35°27' E 139°43'4 8.0
2018-May-22 00:00N 35°24' E 139°39'0 1.0
2018-May-21 23:30N 35°24' E 139°38'0 0.0
2018-May-21 23:00N 35°24' E 139°38'0 0.0
2018-May-21 22:27N 35°24' E 139°38'0 0.0
2018-May-21 22:00N 35°24' E 139°38'0 0.0
2018-May-21 21:30N 35°24' E 139°38'0 0.0
2018-May-21 21:00N 35°24' E 139°38'0 0.0
2018-May-21 20:30N 35°24' E 139°38'0 0.0
2018-May-21 19:57N 35°24' E 139°38'0 0.0
2018-May-21 19:30N 35°24' E 139°38'0 0.1
2018-May-21 19:00N 35°24' E 139°39'0 0.1
2018-May-21 18:30N 35°24' E 139°38'0 0.0
2018-May-21 18:00N 35°24' E 139°38'0 0.0
2018-May-21 17:30N 35°24' E 139°38'0 0.0
2018-May-21 17:00N 35°24' E 139°38'0 0.0
2018-May-21 16:30N 35°24' E 139°38'0 0.0
2018-May-21 16:00N 35°24' E 139°38'0 0.0
2018-May-21 15:30N 35°24' E 139°38'0 0.0
2018-May-21 14:57N 35°24' E 139°38'0 0.0
2018-May-21 14:30N 35°24' E 139°38'0 0.0
2018-May-21 14:00N 35°24' E 139°38'0 0.0
2018-May-21 13:30N 35°24' E 139°38'0 0.0
2018-May-21 13:00N 35°24' E 139°38'0 0.0
2018-May-21 12:30N 35°24' E 139°38'0 0.0
2018-May-21 12:00N 35°24' E 139°38'0 0.0
2018-May-21 11:30N 35°24' E 139°38'0 0.0
2018-May-21 11:00N 35°24' E 139°38'0 0.0
2018-May-21 10:30N 35°24' E 139°38'0 0.0
2018-May-21 10:00N 35°24' E 139°38'0 0.0
2018-May-21 09:30N 35°24' E 139°38'0 0.0
2018-May-21 09:00N 35°24' E 139°38'0 0.0
2018-May-21 08:30N 35°24' E 139°38'0 0.0
2018-May-21 08:00N 35°24' E 139°38'0 0.0
2018-May-21 07:30N 35°24' E 139°38'0 0.0
2018-May-21 07:00N 35°24' E 139°38'0 0.0
2018-May-21 06:30N 35°24' E 139°38'0 0.0
2018-May-21 06:00N 35°24' E 139°38'0 0.0
2018-May-21 05:30N 35°24' E 139°38'0 0.0
2018-May-21 05:00N 35°24' E 139°38'0 0.0
2018-May-21 04:30N 35°24' E 139°38'0 0.0
2018-May-21 03:57N 35°24' E 139°38'0 0.0
2018-May-21 03:30N 35°24' E 139°38'0 0.0
2018-May-21 03:00N 35°24' E 139°38'0 0.0
2018-May-21 02:30N 35°24' E 139°38'0 0.0
2018-May-21 02:00N 35°24' E 139°38'0 0.0
2018-May-21 01:27N 35°24' E 139°38'0 0.0
2018-May-21 01:00N 35°24' E 139°38'1 1.4
2018-May-21 00:30N 35°24' E 139°39'4 7.5
2018-May-21 00:00N 35°23' E 139°44'0 0.8
2018-May-20 23:28N 35°23' E 139°44'0 0.1
2018-May-20 22:58N 35°23' E 139°44'2 4.5
2018-May-20 22:30N 35°24' E 139°46'4 7.2
2018-May-20 22:00N 35°27' E 139°47'3 6.3
2018-May-20 21:30N 35°30' E 139°46'3 5.2
2018-May-20 21:00N 35°30' E 139°43'0 0.4
2018-May-20 20:26N 35°30' E 139°43'0 0.0
2018-May-20 19:59N 35°30' E 139°43'0 0.0
2018-May-20 19:29N 35°30' E 139°43'0 0.0
2018-May-20 18:59N 35°30' E 139°43'0 0.0
2018-May-20 18:29N 35°30' E 139°43'0 0.0
2018-May-20 17:59N 35°30' E 139°43'0 0.0
2018-May-20 17:29N 35°30' E 139°43'0 0.0
2018-May-20 16:59N 35°30' E 139°43'0 0.0
2018-May-20 16:29N 35°30' E 139°43'0 0.0
2018-May-20 15:56N 35°30' E 139°43'0 0.0
2018-May-20 15:29N 35°30' E 139°43'0 0.0
2018-May-20 14:59N 35°30' E 139°43'0 0.0
2018-May-20 14:29N 35°30' E 139°43'0 0.6
2018-May-20 14:00N 35°29' E 139°43'2 4.1
2018-May-20 13:30N 35°27' E 139°43'4 8.0
2018-May-20 13:00N 35°24' E 139°41'2 4.9
2018-May-20 12:30N 35°24' E 139°39'0 0.0
2018-May-20 12:00N 35°24' E 139°39'0 0.0
2018-May-20 11:30N 35°24' E 139°39'0 0.0
2018-May-20 11:00N 35°24' E 139°39'0 0.0
2018-May-20 10:27N 35°24' E 139°39'0 0.0
2018-May-20 10:00N 35°24' E 139°39'0 0.0
2018-May-20 09:30N 35°24' E 139°39'0 0.0
2018-May-20 08:57N 35°24' E 139°39'0 0.0
2018-May-20 08:30N 35°24' E 139°39'0 0.0
2018-May-20 08:00N 35°24' E 139°39'0 0.0
2018-May-20 07:30N 35°24' E 139°39'0 0.0
2018-May-20 07:00N 35°24' E 139°39'0 0.9
2018-May-20 06:30N 35°24' E 139°39'5 9.4
2018-May-20 06:00N 35°23' E 139°45'0 0.8
2018-May-20 05:30N 35°23' E 139°45'0 0.0
2018-May-20 05:00N 35°23' E 139°45'0 0.0
2018-May-20 04:30N 35°23' E 139°45'0 0.0
2018-May-20 04:00N 35°23' E 139°45'0 0.0
2018-May-20 03:30N 35°23' E 139°45'0 0.0
2018-May-20 03:00N 35°23' E 139°45'0 0.0
2018-May-20 02:27N 35°23' E 139°45'0 0.0
2018-May-20 01:57N 35°23' E 139°45'0 0.2
2018-May-20 01:30N 35°23' E 139°45'4 8.5
2018-May-20 01:00N 35°27' E 139°48'510.6
2018-May-20 00:30N 35°30' E 139°52'1 2.3
2018-May-20 00:00N 35°30' E 139°54'0 0.1
2018-May-19 23:30N 35°30' E 139°54'0 0.1
2018-May-19 23:00N 35°30' E 139°54'0 0.0
2018-May-19 22:30N 35°30' E 139°54'0 0.0
2018-May-19 22:00N 35°30' E 139°54'0 0.0
2018-May-19 21:30N 35°30' E 139°54'0 0.0
2018-May-19 21:00N 35°30' E 139°54'0 0.0
2018-May-19 20:30N 35°30' E 139°54'0 0.0
2018-May-19 20:00N 35°30' E 139°54'0 0.1
2018-May-19 19:30N 35°30' E 139°54'0 0.0
2018-May-19 19:00N 35°30' E 139°54'0 0.0
2018-May-19 18:27N 35°30' E 139°54'0 0.0
2018-May-19 18:00N 35°30' E 139°54'0 0.1
2018-May-19 17:30N 35°30' E 139°54'0 0.0
2018-May-19 17:00N 35°30' E 139°54'0 0.0
2018-May-19 16:21N 35°30' E 139°54'0 0.0
2018-May-19 16:00N 35°30' E 139°54'0 0.0
2018-May-19 15:30N 35°30' E 139°54'0 0.0
2018-May-19 14:57N 35°30' E 139°54'0 0.0
2018-May-19 14:30N 35°30' E 139°54'0 0.0
2018-May-19 14:00N 35°30' E 139°54'0 0.0
2018-May-19 13:30N 35°30' E 139°54'0 0.1
2018-May-19 12:57N 35°30' E 139°54'0 0.1
2018-May-19 12:30N 35°30' E 139°54'0 0.0
2018-May-19 12:00N 35°30' E 139°54'0 0.0
2018-May-19 11:30N 35°30' E 139°54'0 0.0
2018-May-19 10:48N 35°30' E 139°54'0 0.0
2018-May-19 10:30N 35°30' E 139°54'0 0.0
2018-May-19 09:57N 35°30' E 139°54'0 0.0
2018-May-19 09:30N 35°30' E 139°54'0 0.0
2018-May-19 08:51N 35°30' E 139°54'0 0.0
2018-May-19 08:30N 35°30' E 139°54'0 0.0
2018-May-19 07:21N 35°30' E 139°54'0 0.0
2018-May-19 07:00N 35°30' E 139°54'0 0.0
2018-May-19 06:30N 35°30' E 139°54'0 0.0
2018-May-19 05:36N 35°30' E 139°54'0 0.0
2018-May-19 05:24N 35°30' E 139°54'0 0.0
2018-May-19 04:57N 35°30' E 139°54'0 0.0
2018-May-19 04:27N 35°30' E 139°54'0 0.0
2018-May-19 04:00N 35°30' E 139°54'0 0.0
2018-May-19 03:15N 35°30' E 139°54'0 0.0
2018-May-19 02:51N 35°30' E 139°54'0 0.1
2018-May-19 02:24N 35°30' E 139°54'0 0.1
2018-May-19 01:57N 35°30' E 139°54'0 0.1
2018-May-19 01:24N 35°30' E 139°54'0 0.0
2018-May-19 01:00N 35°30' E 139°54'0 0.0
2018-May-19 00:30N 35°30' E 139°54'0 0.0
2018-May-18 23:57N 35°30' E 139°54'0 0.1
2018-May-18 23:30N 35°30' E 139°54'0 0.0
2018-May-18 21:54N 35°30' E 139°54'0 0.0
2018-May-18 20:33N 35°30' E 139°54'0 0.0
2018-May-18 20:30N 35°30' E 139°54'0 0.0
2018-May-18 19:57N 35°30' E 139°54'0 0.0
2018-May-18 19:03N 35°30' E 139°54'0 0.0
2018-May-18 18:48N 35°30' E 139°54'0 0.0
2018-May-18 18:27N 35°30' E 139°54'0 0.0
2018-May-18 17:54N 35°30' E 139°54'0 0.0
2018-May-18 17:24N 35°30' E 139°54'0 0.0
2018-May-18 17:00N 35°30' E 139°54'0 0.0
2018-May-18 16:24N 35°30' E 139°54'0 0.0
2018-May-18 15:51N 35°30' E 139°54'0 0.0
2018-May-18 15:27N 35°30' E 139°54'0 0.0
2018-May-18 15:00N 35°30' E 139°54'0 0.0
2018-May-18 14:18N 35°30' E 139°54'0 0.0
2018-May-18 13:39N 35°30' E 139°54'0 0.2
2018-May-18 13:27N 35°30' E 139°54'0 0.0
2018-May-18 12:42N 35°30' E 139°54'0 0.0
2018-May-18 12:30N 35°30' E 139°54'0 0.0
2018-May-18 12:00N 35°30' E 139°54'0 0.0
2018-May-18 11:30N 35°30' E 139°54'0 0.0
2018-May-18 11:00N 35°30' E 139°54'0 0.0
2018-May-18 10:27N 35°30' E 139°54'0 0.0
2018-May-18 10:00N 35°30' E 139°54'0 0.1
2018-May-18 09:27N 35°30' E 139°54'0 0.1
2018-May-18 08:54N 35°30' E 139°54'0 0.0
2018-May-18 08:27N 35°30' E 139°54'0 0.0
2018-May-18 07:57N 35°30' E 139°54'0 0.0
2018-May-18 06:51N 35°30' E 139°54'0 0.0
2018-May-18 06:21N 35°30' E 139°54'0 0.0
2018-May-18 05:51N 35°30' E 139°54'0 0.0
2018-May-18 05:30N 35°30' E 139°54'0 0.0
2018-May-18 04:57N 35°30' E 139°54'0 0.1
2018-May-18 04:30N 35°30' E 139°54'0 0.2
2018-May-18 04:00N 35°30' E 139°54'0 0.0
2018-May-18 03:30N 35°30' E 139°54'0 0.0
2018-May-18 03:00N 35°30' E 139°54'0 0.2
2018-May-18 02:30N 35°30' E 139°54'3 5.7
2018-May-18 02:00N 35°28' E 139°51'5 9.5
2018-May-18 01:30N 35°25' E 139°46'5 9.3
2018-May-18 01:00N 35°23' E 139°41'1 2.7
2018-May-18 00:29N 35°24' E 139°40'0 0.1
2018-May-17 23:59N 35°24' E 139°40'0 0.1
2018-May-17 23:29N 35°24' E 139°40'0 0.0
2018-May-17 22:59N 35°24' E 139°40'0 0.0
2018-May-17 22:29N 35°24' E 139°40'0 0.0
2018-May-17 21:59N 35°24' E 139°40'0 0.0
2018-May-17 21:29N 35°24' E 139°40'0 0.0
2018-May-17 20:59N 35°24' E 139°40'0 0.0
2018-May-17 20:29N 35°24' E 139°40'0 0.0
2018-May-17 19:59N 35°24' E 139°40'0 0.0
2018-May-17 19:29N 35°24' E 139°40'0 0.0
2018-May-17 19:00N 35°24' E 139°40'1 2.3
2018-May-17 18:31N 35°24' E 139°39'0 0.1
2018-May-17 17:58N 35°24' E 139°39'0 0.0
2018-May-17 17:28N 35°24' E 139°39'0 0.0
2018-May-17 16:58N 35°24' E 139°39'0 0.0
2018-May-17 16:28N 35°24' E 139°39'0 0.0
2018-May-17 15:58N 35°24' E 139°39'0 0.0
2018-May-17 15:28N 35°24' E 139°39'0 0.0
2018-May-17 14:58N 35°24' E 139°39'0 0.0
2018-May-17 14:28N 35°24' E 139°39'0 0.0
2018-May-17 13:58N 35°24' E 139°39'0 0.0
2018-May-17 13:28N 35°24' E 139°39'0 0.0
2018-May-17 12:58N 35°24' E 139°39'0 0.0
2018-May-17 12:29N 35°24' E 139°39'0 0.6
2018-May-17 12:00N 35°24' E 139°38'3 5.3
2018-May-17 11:30N 35°24' E 139°42'510.3
2018-May-17 11:00N 35°27' E 139°46'5 9.8
2018-May-17 10:30N 35°30' E 139°51'2 4.2
2018-May-17 10:00N 35°30' E 139°54'0 0.1
2018-May-17 09:25N 35°30' E 139°54'0 0.0
2018-May-17 08:58N 35°30' E 139°54'0 0.0
2018-May-17 08:28N 35°30' E 139°54'0 0.0
2018-May-17 07:55N 35°30' E 139°54'0 0.0
2018-May-17 07:28N 35°30' E 139°54'0 0.0
2018-May-17 06:55N 35°30' E 139°54'0 0.0
2018-May-17 06:28N 35°30' E 139°54'0 0.0
2018-May-17 05:58N 35°30' E 139°54'0 0.0
2018-May-17 05:28N 35°30' E 139°54'0 0.0
2018-May-17 04:55N 35°30' E 139°54'0 0.0
2018-May-17 04:28N 35°30' E 139°54'0 0.0
2018-May-17 03:58N 35°30' E 139°54'0 0.0
2018-May-17 03:28N 35°30' E 139°54'0 0.0
2018-May-17 02:58N 35°30' E 139°54'0 0.0
2018-May-17 02:28N 35°30' E 139°54'0 0.0
2018-May-17 01:55N 35°30' E 139°54'0 0.0
2018-May-17 01:28N 35°30' E 139°54'0 0.0
2018-May-17 00:55N 35°30' E 139°54'0 0.0
2018-May-17 00:25N 35°30' E 139°54'0 0.0
2018-May-16 23:55N 35°30' E 139°54'0 0.0
2018-May-16 23:28N 35°30' E 139°54'0 0.0
2018-May-16 22:58N 35°30' E 139°54'0 0.0
2018-May-16 22:28N 35°30' E 139°54'0 0.0
2018-May-16 21:58N 35°30' E 139°54'0 0.0
2018-May-16 21:28N 35°30' E 139°54'0 0.0
2018-May-16 20:58N 35°30' E 139°54'0 0.0
2018-May-16 20:25N 35°30' E 139°54'0 0.0
2018-May-16 19:58N 35°30' E 139°54'0 0.0
2018-May-16 19:28N 35°30' E 139°54'0 0.0
2018-May-16 18:58N 35°30' E 139°54'0 0.0
2018-May-16 18:28N 35°30' E 139°54'0 0.0
2018-May-16 17:52N 35°30' E 139°54'0 0.0
2018-May-16 17:28N 35°30' E 139°54'0 0.0
2018-May-16 16:55N 35°30' E 139°54'0 0.0
2018-May-16 16:25N 35°30' E 139°54'0 0.0
2018-May-16 15:58N 35°30' E 139°54'0 0.0
2018-May-16 15:28N 35°30' E 139°54'0 0.0
2018-May-16 14:52N 35°30' E 139°54'0 0.0
2018-May-16 14:25N 35°30' E 139°54'0 0.0
2018-May-16 13:58N 35°30' E 139°54'0 0.0
2018-May-16 13:28N 35°30' E 139°54'0 0.0
2018-May-16 12:58N 35°30' E 139°54'0 0.0
2018-May-16 12:28N 35°30' E 139°54'0 0.0
2018-May-16 11:58N 35°30' E 139°54'0 0.0
2018-May-16 11:28N 35°30' E 139°54'0 0.0
2018-May-16 10:58N 35°30' E 139°54'0 0.0
2018-May-16 10:28N 35°30' E 139°54'0 0.0
2018-May-16 09:58N 35°30' E 139°54'0 0.0
2018-May-16 09:25N 35°30' E 139°54'0 0.0
2018-May-16 08:58N 35°30' E 139°54'0 0.0
2018-May-16 08:28N 35°30' E 139°54'0 0.0
2018-May-16 07:58N 35°30' E 139°54'0 0.3
2018-May-16 07:30N 35°30' E 139°54'4 9.0
2018-May-16 07:00N 35°30' E 139°48'4 8.0
2018-May-16 06:29N 35°30' E 139°43'0 0.5
2018-May-16 05:59N 35°30' E 139°43'0 0.0
2018-May-16 05:29N 35°30' E 139°43'0 0.0
2018-May-16 04:59N 35°30' E 139°43'0 0.0
2018-May-16 04:29N 35°30' E 139°43'0 0.0
2018-May-16 03:59N 35°30' E 139°43'0 0.0
2018-May-16 03:29N 35°30' E 139°43'0 0.0
2018-May-16 02:59N 35°30' E 139°43'0 0.0
2018-May-16 02:29N 35°30' E 139°43'0 0.0
2018-May-16 01:59N 35°30' E 139°43'0 0.0
2018-May-16 01:29N 35°30' E 139°43'0 0.0
2018-May-16 00:59N 35°30' E 139°43'0 0.0
2018-May-16 00:29N 35°30' E 139°43'0 0.7
2018-May-16 00:00N 35°29' E 139°43'3 5.7
2018-May-15 23:30N 35°27' E 139°43'4 8.2
2018-May-15 23:00N 35°24' E 139°40'1 2.2
2018-May-15 22:30N 35°24' E 139°39'0 0.0
2018-May-15 22:01N 35°24' E 139°39'0 0.0
2018-May-15 21:30N 35°24' E 139°39'0 0.0
2018-May-15 21:01N 35°24' E 139°39'0 0.0
2018-May-15 20:31N 35°24' E 139°39'0 0.0
2018-May-15 20:00N 35°24' E 139°39'0 0.0
2018-May-15 19:30N 35°24' E 139°39'0 0.1
2018-May-15 19:01N 35°24' E 139°39'0 0.1
2018-May-15 18:30N 35°24' E 139°39'0 0.0
2018-May-15 18:00N 35°24' E 139°39'0 0.0
2018-May-15 17:30N 35°24' E 139°39'0 0.0
2018-May-15 17:01N 35°24' E 139°39'0 0.0
2018-May-15 16:31N 35°24' E 139°39'0 0.0
2018-May-15 16:00N 35°24' E 139°39'0 0.0
2018-May-15 15:30N 35°24' E 139°39'0 0.8
2018-May-15 15:00N 35°24' E 139°39'2 4.6
2018-May-15 14:30N 35°23' E 139°41'4 8.9
2018-May-15 14:00N 35°26' E 139°45'4 8.4
2018-May-15 13:30N 35°29' E 139°50'3 6.4
2018-May-15 13:00N 35°30' E 139°53'2 5.0
2018-May-15 12:30N 35°30' E 139°56'3 5.3
2018-May-15 12:00N 35°27' E 139°58'0 0.2
2018-May-15 11:24N 35°27' E 139°58'0 0.0
2018-May-15 11:00N 35°27' E 139°58'0 0.0
2018-May-15 10:24N 35°27' E 139°58'0 0.0
2018-May-15 09:54N 35°27' E 139°58'0 0.0
2018-May-15 09:30N 35°27' E 139°58'0 0.0
2018-May-15 09:00N 35°27' E 139°58'0 0.0
2018-May-15 08:30N 35°27' E 139°58'0 0.0
2018-May-15 08:00N 35°27' E 139°58'0 0.0
2018-May-15 07:30N 35°27' E 139°58'0 0.7
2018-May-15 07:00N 35°28' E 139°58'3 6.8
2018-May-15 06:30N 35°29' E 139°54'611.1
2018-May-15 06:00N 35°26' E 139°48'611.4
2018-May-15 05:30N 35°24' E 139°42'3 5.9
2018-May-15 05:00N 35°24' E 139°39'0 0.0
2018-May-15 04:29N 35°24' E 139°39'0 0.0
2018-May-15 03:59N 35°24' E 139°39'0 0.0
2018-May-15 03:29N 35°24' E 139°39'0 0.0
2018-May-15 02:59N 35°24' E 139°39'0 0.0
2018-May-15 02:26N 35°24' E 139°39'0 0.0
2018-May-15 01:59N 35°24' E 139°39'0 0.0
2018-May-15 01:29N 35°24' E 139°39'0 0.0
2018-May-15 00:59N 35°24' E 139°39'0 0.0
2018-May-15 00:29N 35°24' E 139°39'0 0.0
2018-May-14 23:56N 35°24' E 139°39'0 0.0
2018-May-14 23:31N 35°24' E 139°39'0 0.7
2018-May-14 23:01N 35°24' E 139°39'1 1.9
2018-May-14 22:30N 35°24' E 139°40'1 1.1
2018-May-14 22:01N 35°24' E 139°40'0 0.0
2018-May-14 21:26N 35°24' E 139°40'0 0.0
2018-May-14 20:59N 35°24' E 139°40'0 0.0
2018-May-14 20:29N 35°24' E 139°40'0 0.0
2018-May-14 19:59N 35°24' E 139°40'0 0.0
2018-May-14 19:29N 35°24' E 139°40'0 0.0
2018-May-14 18:59N 35°24' E 139°40'0 0.0
2018-May-14 18:29N 35°24' E 139°40'0 0.0
2018-May-14 17:59N 35°24' E 139°40'0 0.0
2018-May-14 17:29N 35°24' E 139°40'0 0.0
2018-May-14 16:59N 35°24' E 139°40'0 0.0
2018-May-14 16:26N 35°24' E 139°40'0 0.0
2018-May-14 15:59N 35°24' E 139°40'0 0.0
2018-May-14 15:29N 35°24' E 139°40'0 0.0
2018-May-14 14:59N 35°24' E 139°40'0 0.0
2018-May-14 14:29N 35°24' E 139°40'0 0.0
2018-May-14 13:59N 35°24' E 139°40'0 0.0
2018-May-14 13:29N 35°24' E 139°40'0 0.0
2018-May-14 12:59N 35°24' E 139°40'0 0.0
2018-May-14 12:29N 35°24' E 139°40'0 0.0
2018-May-14 11:59N 35°24' E 139°40'0 0.0
2018-May-14 11:26N 35°24' E 139°40'0 0.0
2018-May-14 10:56N 35°24' E 139°40'0 0.0
2018-May-14 10:29N 35°24' E 139°40'0 0.0
2018-May-14 10:00N 35°24' E 139°40'0 0.0
2018-May-14 09:29N 35°24' E 139°40'  

Dump ship's entire track history